<?xml version="1.0" encoding="UTF-8" standalone="no" ?>
<gpx xmlns="http://www.topografix.com/GPX/1/1" xmlns:xsi="http://www.w3.org/2001/XMLSchema-instance" xsi:schemaLocation="http://www.topografix.com/GPX/1/1 http://www.topografix.com/GPX/1/1/gpx.xsd" version="1.1" creator="VisuGPX - https://www.visugpx.com">
  <metadata>
    <name>La pointe de la parata</name>
    <desc><![CDATA[La pointe de la parata]]></desc>
  </metadata>
  <trk>
    <name><![CDATA[2015-10-27 16:27:42]]></name>
    <trkseg>
      <trkpt lat="41.90089" lon="8.61659">
        <ele>5.42</ele>
        <time>2015-10-27T13:56:45Z</time>
      </trkpt>
      <trkpt lat="41.90089" lon="8.61658">
        <ele>5.42</ele>
        <time>2015-10-27T13:56:46Z</time>
      </trkpt>
      <trkpt lat="41.90077" lon="8.61635">
        <ele>3.98</ele>
        <time>2015-10-27T13:57:08Z</time>
      </trkpt>
      <trkpt lat="41.90072" lon="8.61627">
        <ele>1.58</ele>
        <time>2015-10-27T13:57:20Z</time>
      </trkpt>
      <trkpt lat="41.90061" lon="8.6161">
        <ele>2.54</ele>
        <time>2015-10-27T13:57:34Z</time>
      </trkpt>
      <trkpt lat="41.90052" lon="8.61596">
        <ele>-0.82</ele>
        <time>2015-10-27T13:57:47Z</time>
      </trkpt>
      <trkpt lat="41.90043" lon="8.61584">
        <ele>-1.3</ele>
        <time>2015-10-27T13:58:01Z</time>
      </trkpt>
      <trkpt lat="41.90033" lon="8.61574">
        <ele>0.14</ele>
        <time>2015-10-27T13:58:13Z</time>
      </trkpt>
      <trkpt lat="41.90032" lon="8.61574">
        <ele>0.62</ele>
        <time>2015-10-27T13:58:15Z</time>
      </trkpt>
      <trkpt lat="41.90031" lon="8.61574">
        <ele>1.1</ele>
        <time>2015-10-27T13:58:16Z</time>
      </trkpt>
      <trkpt lat="41.90027" lon="8.61573">
        <ele>1.58</ele>
        <time>2015-10-27T13:58:20Z</time>
      </trkpt>
      <trkpt lat="41.90025" lon="8.61572">
        <ele>1.58</ele>
        <time>2015-10-27T13:58:22Z</time>
      </trkpt>
      <trkpt lat="41.90023" lon="8.6157">
        <ele>1.58</ele>
        <time>2015-10-27T13:58:23Z</time>
      </trkpt>
      <trkpt lat="41.90022" lon="8.61569">
        <ele>2.06</ele>
        <time>2015-10-27T13:58:24Z</time>
      </trkpt>
      <trkpt lat="41.90021" lon="8.61568">
        <ele>2.06</ele>
        <time>2015-10-27T13:58:25Z</time>
      </trkpt>
      <trkpt lat="41.9002" lon="8.61567">
        <ele>2.06</ele>
        <time>2015-10-27T13:58:26Z</time>
      </trkpt>
      <trkpt lat="41.9001" lon="8.61561">
        <ele>2.06</ele>
        <time>2015-10-27T13:58:37Z</time>
      </trkpt>
      <trkpt lat="41.89997" lon="8.6155">
        <ele>2.54</ele>
        <time>2015-10-27T13:58:52Z</time>
      </trkpt>
      <trkpt lat="41.89984" lon="8.61542">
        <ele>3.5</ele>
        <time>2015-10-27T13:59:07Z</time>
      </trkpt>
      <trkpt lat="41.89972" lon="8.61533">
        <ele>4.94</ele>
        <time>2015-10-27T13:59:22Z</time>
      </trkpt>
      <trkpt lat="41.89959" lon="8.61525">
        <ele>5.91</ele>
        <time>2015-10-27T13:59:36Z</time>
      </trkpt>
      <trkpt lat="41.89947" lon="8.61516">
        <ele>7.35</ele>
        <time>2015-10-27T13:59:49Z</time>
      </trkpt>
      <trkpt lat="41.89943" lon="8.61513">
        <ele>7.83</ele>
        <time>2015-10-27T13:59:54Z</time>
      </trkpt>
      <trkpt lat="41.89934" lon="8.61508">
        <ele>9.27</ele>
        <time>2015-10-27T14:00:05Z</time>
      </trkpt>
      <trkpt lat="41.89917" lon="8.61492">
        <ele>9.75</ele>
        <time>2015-10-27T14:00:25Z</time>
      </trkpt>
      <trkpt lat="41.89909" lon="8.61483">
        <ele>10.71</ele>
        <time>2015-10-27T14:00:36Z</time>
      </trkpt>
      <trkpt lat="41.89896" lon="8.61469">
        <ele>10.23</ele>
        <time>2015-10-27T14:00:52Z</time>
      </trkpt>
      <trkpt lat="41.89893" lon="8.61466">
        <ele>10.23</ele>
        <time>2015-10-27T14:00:56Z</time>
      </trkpt>
      <trkpt lat="41.89883" lon="8.61452">
        <ele>10.71</ele>
        <time>2015-10-27T14:01:11Z</time>
      </trkpt>
      <trkpt lat="41.89872" lon="8.61439">
        <ele>12.15</ele>
        <time>2015-10-27T14:01:27Z</time>
      </trkpt>
      <trkpt lat="41.89863" lon="8.61427">
        <ele>13.12</ele>
        <time>2015-10-27T14:01:39Z</time>
      </trkpt>
      <trkpt lat="41.89855" lon="8.61411">
        <ele>13.12</ele>
        <time>2015-10-27T14:01:54Z</time>
      </trkpt>
      <trkpt lat="41.89848" lon="8.61398">
        <ele>13.6</ele>
        <time>2015-10-27T14:02:07Z</time>
      </trkpt>
      <trkpt lat="41.89841" lon="8.61385">
        <ele>14.08</ele>
        <time>2015-10-27T14:02:21Z</time>
      </trkpt>
      <trkpt lat="41.89834" lon="8.61368">
        <ele>13.6</ele>
        <time>2015-10-27T14:02:35Z</time>
      </trkpt>
      <trkpt lat="41.89826" lon="8.61353">
        <ele>12.63</ele>
        <time>2015-10-27T14:02:50Z</time>
      </trkpt>
      <trkpt lat="41.89819" lon="8.61337">
        <ele>12.15</ele>
        <time>2015-10-27T14:03:04Z</time>
      </trkpt>
      <trkpt lat="41.8981" lon="8.61319">
        <ele>12.15</ele>
        <time>2015-10-27T14:03:20Z</time>
      </trkpt>
      <trkpt lat="41.89801" lon="8.61306">
        <ele>13.12</ele>
        <time>2015-10-27T14:03:34Z</time>
      </trkpt>
      <trkpt lat="41.89794" lon="8.61296">
        <ele>12.63</ele>
        <time>2015-10-27T14:03:45Z</time>
      </trkpt>
      <trkpt lat="41.89789" lon="8.61291">
        <ele>12.15</ele>
        <time>2015-10-27T14:03:51Z</time>
      </trkpt>
      <trkpt lat="41.8978" lon="8.61278">
        <ele>11.67</ele>
        <time>2015-10-27T14:04:04Z</time>
      </trkpt>
      <trkpt lat="41.89779" lon="8.61276">
        <ele>12.63</ele>
        <time>2015-10-27T14:04:22Z</time>
      </trkpt>
      <trkpt lat="41.89778" lon="8.61274">
        <ele>13.6</ele>
        <time>2015-10-27T14:04:43Z</time>
      </trkpt>
      <trkpt lat="41.89771" lon="8.61265">
        <ele>13.6</ele>
        <time>2015-10-27T14:05:01Z</time>
      </trkpt>
      <trkpt lat="41.89764" lon="8.61251">
        <ele>13.12</ele>
        <time>2015-10-27T14:05:15Z</time>
      </trkpt>
      <trkpt lat="41.89759" lon="8.61238">
        <ele>11.67</ele>
        <time>2015-10-27T14:05:29Z</time>
      </trkpt>
      <trkpt lat="41.89759" lon="8.61235">
        <ele>10.71</ele>
        <time>2015-10-27T14:05:48Z</time>
      </trkpt>
      <trkpt lat="41.89754" lon="8.61221">
        <ele>11.19</ele>
        <time>2015-10-27T14:06:01Z</time>
      </trkpt>
      <trkpt lat="41.89749" lon="8.61204">
        <ele>12.63</ele>
        <time>2015-10-27T14:06:15Z</time>
      </trkpt>
      <trkpt lat="41.89744" lon="8.61186">
        <ele>11.19</ele>
        <time>2015-10-27T14:06:30Z</time>
      </trkpt>
      <trkpt lat="41.8974" lon="8.61171">
        <ele>9.75</ele>
        <time>2015-10-27T14:06:41Z</time>
      </trkpt>
      <trkpt lat="41.89737" lon="8.61169">
        <ele>9.75</ele>
        <time>2015-10-27T14:06:47Z</time>
      </trkpt>
      <trkpt lat="41.89729" lon="8.61156">
        <ele>9.75</ele>
        <time>2015-10-27T14:06:58Z</time>
      </trkpt>
      <trkpt lat="41.89723" lon="8.61146">
        <ele>9.75</ele>
        <time>2015-10-27T14:07:07Z</time>
      </trkpt>
      <trkpt lat="41.89718" lon="8.61137">
        <ele>11.19</ele>
        <time>2015-10-27T14:07:16Z</time>
      </trkpt>
      <trkpt lat="41.89709" lon="8.61126">
        <ele>13.6</ele>
        <time>2015-10-27T14:07:25Z</time>
      </trkpt>
      <trkpt lat="41.89706" lon="8.61122">
        <ele>13.12</ele>
        <time>2015-10-27T14:07:32Z</time>
      </trkpt>
      <trkpt lat="41.89705" lon="8.61121">
        <ele>12.63</ele>
        <time>2015-10-27T14:07:33Z</time>
      </trkpt>
      <trkpt lat="41.89704" lon="8.61119">
        <ele>12.63</ele>
        <time>2015-10-27T14:07:34Z</time>
      </trkpt>
      <trkpt lat="41.89698" lon="8.61109">
        <ele>11.19</ele>
        <time>2015-10-27T14:07:43Z</time>
      </trkpt>
      <trkpt lat="41.89694" lon="8.61101">
        <ele>9.75</ele>
        <time>2015-10-27T14:07:52Z</time>
      </trkpt>
      <trkpt lat="41.8969" lon="8.61092">
        <ele>7.83</ele>
        <time>2015-10-27T14:08:01Z</time>
      </trkpt>
      <trkpt lat="41.89687" lon="8.61087">
        <ele>6.87</ele>
        <time>2015-10-27T14:08:08Z</time>
      </trkpt>
      <trkpt lat="41.89679" lon="8.61075">
        <ele>6.87</ele>
        <time>2015-10-27T14:08:18Z</time>
      </trkpt>
      <trkpt lat="41.89675" lon="8.61065">
        <ele>6.87</ele>
        <time>2015-10-27T14:08:27Z</time>
      </trkpt>
      <trkpt lat="41.8967" lon="8.61053">
        <ele>6.87</ele>
        <time>2015-10-27T14:08:38Z</time>
      </trkpt>
      <trkpt lat="41.89665" lon="8.61044">
        <ele>7.35</ele>
        <time>2015-10-27T14:08:49Z</time>
      </trkpt>
      <trkpt lat="41.89664" lon="8.61044">
        <ele>7.83</ele>
        <time>2015-10-27T14:08:53Z</time>
      </trkpt>
      <trkpt lat="41.89662" lon="8.6104">
        <ele>8.79</ele>
        <time>2015-10-27T14:09:00Z</time>
      </trkpt>
      <trkpt lat="41.89656" lon="8.61029">
        <ele>8.31</ele>
        <time>2015-10-27T14:09:11Z</time>
      </trkpt>
      <trkpt lat="41.89649" lon="8.61019">
        <ele>9.27</ele>
        <time>2015-10-27T14:09:24Z</time>
      </trkpt>
      <trkpt lat="41.8965" lon="8.61019">
        <ele>8.31</ele>
        <time>2015-10-27T14:09:40Z</time>
      </trkpt>
      <trkpt lat="41.89649" lon="8.6102">
        <ele>9.27</ele>
        <time>2015-10-27T14:09:57Z</time>
      </trkpt>
      <trkpt lat="41.89648" lon="8.61017">
        <ele>8.79</ele>
        <time>2015-10-27T14:10:15Z</time>
      </trkpt>
      <trkpt lat="41.8965" lon="8.61013">
        <ele>7.83</ele>
        <time>2015-10-27T14:10:38Z</time>
      </trkpt>
      <trkpt lat="41.89653" lon="8.61013">
        <ele>9.75</ele>
        <time>2015-10-27T14:10:57Z</time>
      </trkpt>
      <trkpt lat="41.89653" lon="8.61014">
        <ele>8.31</ele>
        <time>2015-10-27T14:11:24Z</time>
      </trkpt>
      <trkpt lat="41.89653" lon="8.61014">
        <ele>7.35</ele>
        <time>2015-10-27T14:11:54Z</time>
      </trkpt>
      <trkpt lat="41.89648" lon="8.61007">
        <ele>9.27</ele>
        <time>2015-10-27T14:12:07Z</time>
      </trkpt>
      <trkpt lat="41.89645" lon="8.61008">
        <ele>9.27</ele>
        <time>2015-10-27T14:12:10Z</time>
      </trkpt>
      <trkpt lat="41.8964" lon="8.61008">
        <ele>9.27</ele>
        <time>2015-10-27T14:12:16Z</time>
      </trkpt>
      <trkpt lat="41.89629" lon="8.61001">
        <ele>8.79</ele>
        <time>2015-10-27T14:12:29Z</time>
      </trkpt>
      <trkpt lat="41.89624" lon="8.60999">
        <ele>9.75</ele>
        <time>2015-10-27T14:12:40Z</time>
      </trkpt>
      <trkpt lat="41.89619" lon="8.60997">
        <ele>11.19</ele>
        <time>2015-10-27T14:12:58Z</time>
      </trkpt>
      <trkpt lat="41.89616" lon="8.60994">
        <ele>11.67</ele>
        <time>2015-10-27T14:13:02Z</time>
      </trkpt>
      <trkpt lat="41.89608" lon="8.60984">
        <ele>12.15</ele>
        <time>2015-10-27T14:13:14Z</time>
      </trkpt>
      <trkpt lat="41.89607" lon="8.60981">
        <ele>12.15</ele>
        <time>2015-10-27T14:13:17Z</time>
      </trkpt>
      <trkpt lat="41.89603" lon="8.60975">
        <ele>11.67</ele>
        <time>2015-10-27T14:13:24Z</time>
      </trkpt>
      <trkpt lat="41.89595" lon="8.60964">
        <ele>11.67</ele>
        <time>2015-10-27T14:13:37Z</time>
      </trkpt>
      <trkpt lat="41.8959" lon="8.60953">
        <ele>12.15</ele>
        <time>2015-10-27T14:13:50Z</time>
      </trkpt>
      <trkpt lat="41.8959" lon="8.60951">
        <ele>14.56</ele>
        <time>2015-10-27T14:14:05Z</time>
      </trkpt>
      <trkpt lat="41.8959" lon="8.60951">
        <ele>12.63</ele>
        <time>2015-10-27T14:14:20Z</time>
      </trkpt>
      <trkpt lat="41.8959" lon="8.60945">
        <ele>15.52</ele>
        <time>2015-10-27T14:15:03Z</time>
      </trkpt>
      <trkpt lat="41.89589" lon="8.60945">
        <ele>15.52</ele>
        <time>2015-10-27T14:15:21Z</time>
      </trkpt>
      <trkpt lat="41.89589" lon="8.60935">
        <ele>16.48</ele>
        <time>2015-10-27T14:15:35Z</time>
      </trkpt>
      <trkpt lat="41.89587" lon="8.60934">
        <ele>17.92</ele>
        <time>2015-10-27T14:15:52Z</time>
      </trkpt>
      <trkpt lat="41.89582" lon="8.60928">
        <ele>17.92</ele>
        <time>2015-10-27T14:16:04Z</time>
      </trkpt>
      <trkpt lat="41.89575" lon="8.60924">
        <ele>18.88</ele>
        <time>2015-10-27T14:16:17Z</time>
      </trkpt>
      <trkpt lat="41.89574" lon="8.60925">
        <ele>21.29</ele>
        <time>2015-10-27T14:16:37Z</time>
      </trkpt>
      <trkpt lat="41.89573" lon="8.60925">
        <ele>21.29</ele>
        <time>2015-10-27T14:16:44Z</time>
      </trkpt>
      <trkpt lat="41.8957" lon="8.60926">
        <ele>20.81</ele>
        <time>2015-10-27T14:16:48Z</time>
      </trkpt>
      <trkpt lat="41.89561" lon="8.60924">
        <ele>20.32</ele>
        <time>2015-10-27T14:17:01Z</time>
      </trkpt>
      <trkpt lat="41.89551" lon="8.60923">
        <ele>20.81</ele>
        <time>2015-10-27T14:17:13Z</time>
      </trkpt>
      <trkpt lat="41.89538" lon="8.60916">
        <ele>20.81</ele>
        <time>2015-10-27T14:17:27Z</time>
      </trkpt>
      <trkpt lat="41.89526" lon="8.6091">
        <ele>21.29</ele>
        <time>2015-10-27T14:17:42Z</time>
      </trkpt>
      <trkpt lat="41.89517" lon="8.60904">
        <ele>19.84</ele>
        <time>2015-10-27T14:17:53Z</time>
      </trkpt>
      <trkpt lat="41.89509" lon="8.60896">
        <ele>18.88</ele>
        <time>2015-10-27T14:18:05Z</time>
      </trkpt>
      <trkpt lat="41.89504" lon="8.60894">
        <ele>19.36</ele>
        <time>2015-10-27T14:18:12Z</time>
      </trkpt>
      <trkpt lat="41.89503" lon="8.6089">
        <ele>17.92</ele>
        <time>2015-10-27T14:18:27Z</time>
      </trkpt>
      <trkpt lat="41.89502" lon="8.60891">
        <ele>17.92</ele>
        <time>2015-10-27T14:18:32Z</time>
      </trkpt>
      <trkpt lat="41.89493" lon="8.60881">
        <ele>18.88</ele>
        <time>2015-10-27T14:18:44Z</time>
      </trkpt>
      <trkpt lat="41.8949" lon="8.60876">
        <ele>22.73</ele>
        <time>2015-10-27T14:19:01Z</time>
      </trkpt>
      <trkpt lat="41.89492" lon="8.60873">
        <ele>23.21</ele>
        <time>2015-10-27T14:19:11Z</time>
      </trkpt>
      <trkpt lat="41.89497" lon="8.60875">
        <ele>23.69</ele>
        <time>2015-10-27T14:19:24Z</time>
      </trkpt>
      <trkpt lat="41.89504" lon="8.60876">
        <ele>27.53</ele>
        <time>2015-10-27T14:19:39Z</time>
      </trkpt>
      <trkpt lat="41.89508" lon="8.60871">
        <ele>30.9</ele>
        <time>2015-10-27T14:19:54Z</time>
      </trkpt>
      <trkpt lat="41.8951" lon="8.60866">
        <ele>33.3</ele>
        <time>2015-10-27T14:20:08Z</time>
      </trkpt>
      <trkpt lat="41.89509" lon="8.60859">
        <ele>36.67</ele>
        <time>2015-10-27T14:20:24Z</time>
      </trkpt>
      <trkpt lat="41.89512" lon="8.60851">
        <ele>40.03</ele>
        <time>2015-10-27T14:20:41Z</time>
      </trkpt>
      <trkpt lat="41.89513" lon="8.60845">
        <ele>44.36</ele>
        <time>2015-10-27T14:20:56Z</time>
      </trkpt>
      <trkpt lat="41.89517" lon="8.60844">
        <ele>47.24</ele>
        <time>2015-10-27T14:21:12Z</time>
      </trkpt>
      <trkpt lat="41.89519" lon="8.60842">
        <ele>50.13</ele>
        <time>2015-10-27T14:21:26Z</time>
      </trkpt>
      <trkpt lat="41.89518" lon="8.60839">
        <ele>50.13</ele>
        <time>2015-10-27T14:21:41Z</time>
      </trkpt>
      <trkpt lat="41.89518" lon="8.60838">
        <ele>48.68</ele>
        <time>2015-10-27T14:21:55Z</time>
      </trkpt>
      <trkpt lat="41.89523" lon="8.60838">
        <ele>51.09</ele>
        <time>2015-10-27T14:22:12Z</time>
      </trkpt>
      <trkpt lat="41.89527" lon="8.6084">
        <ele>52.53</ele>
        <time>2015-10-27T14:22:25Z</time>
      </trkpt>
      <trkpt lat="41.89524" lon="8.60833">
        <ele>53.49</ele>
        <time>2015-10-27T14:22:37Z</time>
      </trkpt>
      <trkpt lat="41.89523" lon="8.60831">
        <ele>52.05</ele>
        <time>2015-10-27T14:22:52Z</time>
      </trkpt>
      <trkpt lat="41.89525" lon="8.60831">
        <ele>51.57</ele>
        <time>2015-10-27T14:23:12Z</time>
      </trkpt>
      <trkpt lat="41.89524" lon="8.60831">
        <ele>52.05</ele>
        <time>2015-10-27T14:23:29Z</time>
      </trkpt>
      <trkpt lat="41.89525" lon="8.6083">
        <ele>52.05</ele>
        <time>2015-10-27T14:23:47Z</time>
      </trkpt>
      <trkpt lat="41.89524" lon="8.60832">
        <ele>52.05</ele>
        <time>2015-10-27T14:24:13Z</time>
      </trkpt>
      <trkpt lat="41.89525" lon="8.60835">
        <ele>53.49</ele>
        <time>2015-10-27T14:24:39Z</time>
      </trkpt>
      <trkpt lat="41.89526" lon="8.60835">
        <ele>52.05</ele>
        <time>2015-10-27T14:24:56Z</time>
      </trkpt>
      <trkpt lat="41.89526" lon="8.60837">
        <ele>51.57</ele>
        <time>2015-10-27T14:25:06Z</time>
      </trkpt>
      <trkpt lat="41.89534" lon="8.60848">
        <ele>51.09</ele>
        <time>2015-10-27T14:25:18Z</time>
      </trkpt>
      <trkpt lat="41.8954" lon="8.60849">
        <ele>52.05</ele>
        <time>2015-10-27T14:25:32Z</time>
      </trkpt>
      <trkpt lat="41.89543" lon="8.60841">
        <ele>53.49</ele>
        <time>2015-10-27T14:25:44Z</time>
      </trkpt>
      <trkpt lat="41.89542" lon="8.60839">
        <ele>54.93</ele>
        <time>2015-10-27T14:25:56Z</time>
      </trkpt>
      <trkpt lat="41.89541" lon="8.60832">
        <ele>55.41</ele>
        <time>2015-10-27T14:26:12Z</time>
      </trkpt>
      <trkpt lat="41.89539" lon="8.60829">
        <ele>55.89</ele>
        <time>2015-10-27T14:26:29Z</time>
      </trkpt>
      <trkpt lat="41.89536" lon="8.60832">
        <ele>57.82</ele>
        <time>2015-10-27T14:26:47Z</time>
      </trkpt>
      <trkpt lat="41.89533" lon="8.60833">
        <ele>57.34</ele>
        <time>2015-10-27T14:27:02Z</time>
      </trkpt>
      <trkpt lat="41.89533" lon="8.60834">
        <ele>56.86</ele>
        <time>2015-10-27T14:27:04Z</time>
      </trkpt>
      <trkpt lat="41.89533" lon="8.60836">
        <ele>55.41</ele>
        <time>2015-10-27T14:27:15Z</time>
      </trkpt>
      <trkpt lat="41.8953" lon="8.60836">
        <ele>53.97</ele>
        <time>2015-10-27T14:27:30Z</time>
      </trkpt>
      <trkpt lat="41.89526" lon="8.60833">
        <ele>51.09</ele>
        <time>2015-10-27T14:27:44Z</time>
      </trkpt>
      <trkpt lat="41.89525" lon="8.60834">
        <ele>51.09</ele>
        <time>2015-10-27T14:28:06Z</time>
      </trkpt>
      <trkpt lat="41.89526" lon="8.60841">
        <ele>51.09</ele>
        <time>2015-10-27T14:28:39Z</time>
      </trkpt>
      <trkpt lat="41.89525" lon="8.60839">
        <ele>52.05</ele>
        <time>2015-10-27T14:28:51Z</time>
      </trkpt>
      <trkpt lat="41.89525" lon="8.60836">
        <ele>51.09</ele>
        <time>2015-10-27T14:29:19Z</time>
      </trkpt>
      <trkpt lat="41.89525" lon="8.60836">
        <ele>50.61</ele>
        <time>2015-10-27T14:29:45Z</time>
      </trkpt>
      <trkpt lat="41.89525" lon="8.60837">
        <ele>50.13</ele>
        <time>2015-10-27T14:30:14Z</time>
      </trkpt>
      <trkpt lat="41.89524" lon="8.60837">
        <ele>49.16</ele>
        <time>2015-10-27T14:30:52Z</time>
      </trkpt>
      <trkpt lat="41.89525" lon="8.60837">
        <ele>49.16</ele>
        <time>2015-10-27T14:31:21Z</time>
      </trkpt>
      <trkpt lat="41.89524" lon="8.60836">
        <ele>49.16</ele>
        <time>2015-10-27T14:31:44Z</time>
      </trkpt>
      <trkpt lat="41.89522" lon="8.60836">
        <ele>47.72</ele>
        <time>2015-10-27T14:32:03Z</time>
      </trkpt>
      <trkpt lat="41.89519" lon="8.60838">
        <ele>46.76</ele>
        <time>2015-10-27T14:32:17Z</time>
      </trkpt>
      <trkpt lat="41.89517" lon="8.60839">
        <ele>45.32</ele>
        <time>2015-10-27T14:32:34Z</time>
      </trkpt>
      <trkpt lat="41.89514" lon="8.60843">
        <ele>42.92</ele>
        <time>2015-10-27T14:32:48Z</time>
      </trkpt>
      <trkpt lat="41.89514" lon="8.60847">
        <ele>40.51</ele>
        <time>2015-10-27T14:32:59Z</time>
      </trkpt>
      <trkpt lat="41.89511" lon="8.60853">
        <ele>38.59</ele>
        <time>2015-10-27T14:33:13Z</time>
      </trkpt>
      <trkpt lat="41.89508" lon="8.60858">
        <ele>35.71</ele>
        <time>2015-10-27T14:33:29Z</time>
      </trkpt>
      <trkpt lat="41.89508" lon="8.60863">
        <ele>32.82</ele>
        <time>2015-10-27T14:33:42Z</time>
      </trkpt>
      <trkpt lat="41.89506" lon="8.60868">
        <ele>30.42</ele>
        <time>2015-10-27T14:33:55Z</time>
      </trkpt>
      <trkpt lat="41.89506" lon="8.60871">
        <ele>29.46</ele>
        <time>2015-10-27T14:34:08Z</time>
      </trkpt>
      <trkpt lat="41.89502" lon="8.60876">
        <ele>27.53</ele>
        <time>2015-10-27T14:34:21Z</time>
      </trkpt>
      <trkpt lat="41.89501" lon="8.60878">
        <ele>25.61</ele>
        <time>2015-10-27T14:34:35Z</time>
      </trkpt>
      <trkpt lat="41.89494" lon="8.60877">
        <ele>22.73</ele>
        <time>2015-10-27T14:34:51Z</time>
      </trkpt>
      <trkpt lat="41.89488" lon="8.60875">
        <ele>19.36</ele>
        <time>2015-10-27T14:35:05Z</time>
      </trkpt>
      <trkpt lat="41.89486" lon="8.60875">
        <ele>18.4</ele>
        <time>2015-10-27T14:35:10Z</time>
      </trkpt>
      <trkpt lat="41.89483" lon="8.60876">
        <ele>17.92</ele>
        <time>2015-10-27T14:35:13Z</time>
      </trkpt>
      <trkpt lat="41.89481" lon="8.60872">
        <ele>15.52</ele>
        <time>2015-10-27T14:35:26Z</time>
      </trkpt>
      <trkpt lat="41.8948" lon="8.60872">
        <ele>14.08</ele>
        <time>2015-10-27T14:35:53Z</time>
      </trkpt>
      <trkpt lat="41.89474" lon="8.60861">
        <ele>13.12</ele>
        <time>2015-10-27T14:36:05Z</time>
      </trkpt>
      <trkpt lat="41.89472" lon="8.6086">
        <ele>12.63</ele>
        <time>2015-10-27T14:36:08Z</time>
      </trkpt>
      <trkpt lat="41.89467" lon="8.60846">
        <ele>12.15</ele>
        <time>2015-10-27T14:36:20Z</time>
      </trkpt>
      <trkpt lat="41.89467" lon="8.60846">
        <ele>12.15</ele>
        <time>2015-10-27T14:36:21Z</time>
      </trkpt>
      <trkpt lat="41.89466" lon="8.60837">
        <ele>12.15</ele>
        <time>2015-10-27T14:36:35Z</time>
      </trkpt>
      <trkpt lat="41.89467" lon="8.60836">
        <ele>11.67</ele>
        <time>2015-10-27T14:36:57Z</time>
      </trkpt>
      <trkpt lat="41.89466" lon="8.60837">
        <ele>11.67</ele>
        <time>2015-10-27T14:37:27Z</time>
      </trkpt>
      <trkpt lat="41.89466" lon="8.60837">
        <ele>11.67</ele>
        <time>2015-10-27T14:37:44Z</time>
      </trkpt>
      <trkpt lat="41.89467" lon="8.60838">
        <ele>11.67</ele>
        <time>2015-10-27T14:38:14Z</time>
      </trkpt>
      <trkpt lat="41.89467" lon="8.60836">
        <ele>12.15</ele>
        <time>2015-10-27T14:38:41Z</time>
      </trkpt>
      <trkpt lat="41.89467" lon="8.60838">
        <ele>13.12</ele>
        <time>2015-10-27T14:39:00Z</time>
      </trkpt>
      <trkpt lat="41.89469" lon="8.60837">
        <ele>14.56</ele>
        <time>2015-10-27T14:39:31Z</time>
      </trkpt>
      <trkpt lat="41.89466" lon="8.60837">
        <ele>14.56</ele>
        <time>2015-10-27T14:39:46Z</time>
      </trkpt>
      <trkpt lat="41.89466" lon="8.60838">
        <ele>12.63</ele>
        <time>2015-10-27T14:40:18Z</time>
      </trkpt>
      <trkpt lat="41.89466" lon="8.60836">
        <ele>14.08</ele>
        <time>2015-10-27T14:40:46Z</time>
      </trkpt>
      <trkpt lat="41.89468" lon="8.60835">
        <ele>12.63</ele>
        <time>2015-10-27T14:41:06Z</time>
      </trkpt>
      <trkpt lat="41.89468" lon="8.60835">
        <ele>12.63</ele>
        <time>2015-10-27T14:41:25Z</time>
      </trkpt>
      <trkpt lat="41.89473" lon="8.60832">
        <ele>13.12</ele>
        <time>2015-10-27T14:41:39Z</time>
      </trkpt>
      <trkpt lat="41.89476" lon="8.60831">
        <ele>13.6</ele>
        <time>2015-10-27T14:41:45Z</time>
      </trkpt>
      <trkpt lat="41.89479" lon="8.60827">
        <ele>14.08</ele>
        <time>2015-10-27T14:41:59Z</time>
      </trkpt>
      <trkpt lat="41.89478" lon="8.60828">
        <ele>15.04</ele>
        <time>2015-10-27T14:42:27Z</time>
      </trkpt>
      <trkpt lat="41.89479" lon="8.60827">
        <ele>14.56</ele>
        <time>2015-10-27T14:43:03Z</time>
      </trkpt>
      <trkpt lat="41.8948" lon="8.60824">
        <ele>16.96</ele>
        <time>2015-10-27T14:43:38Z</time>
      </trkpt>
      <trkpt lat="41.89483" lon="8.60821">
        <ele>16.48</ele>
        <time>2015-10-27T14:43:52Z</time>
      </trkpt>
      <trkpt lat="41.89483" lon="8.60816">
        <ele>15.52</ele>
        <time>2015-10-27T14:44:09Z</time>
      </trkpt>
      <trkpt lat="41.8949" lon="8.60808">
        <ele>16</ele>
        <time>2015-10-27T14:44:28Z</time>
      </trkpt>
      <trkpt lat="41.89498" lon="8.60799">
        <ele>16.48</ele>
        <time>2015-10-27T14:44:42Z</time>
      </trkpt>
      <trkpt lat="41.89508" lon="8.60792">
        <ele>16.96</ele>
        <time>2015-10-27T14:44:59Z</time>
      </trkpt>
      <trkpt lat="41.89519" lon="8.60787">
        <ele>17.44</ele>
        <time>2015-10-27T14:45:16Z</time>
      </trkpt>
      <trkpt lat="41.89523" lon="8.60784">
        <ele>17.92</ele>
        <time>2015-10-27T14:45:38Z</time>
      </trkpt>
      <trkpt lat="41.89531" lon="8.60782">
        <ele>17.44</ele>
        <time>2015-10-27T14:45:52Z</time>
      </trkpt>
      <trkpt lat="41.89543" lon="8.60777">
        <ele>15.04</ele>
        <time>2015-10-27T14:46:09Z</time>
      </trkpt>
      <trkpt lat="41.89554" lon="8.60771">
        <ele>16</ele>
        <time>2015-10-27T14:46:24Z</time>
      </trkpt>
      <trkpt lat="41.89555" lon="8.6077">
        <ele>16</ele>
        <time>2015-10-27T14:46:25Z</time>
      </trkpt>
      <trkpt lat="41.89556" lon="8.60768">
        <ele>14.56</ele>
        <time>2015-10-27T14:46:38Z</time>
      </trkpt>
      <trkpt lat="41.89562" lon="8.6077">
        <ele>16.48</ele>
        <time>2015-10-27T14:47:05Z</time>
      </trkpt>
      <trkpt lat="41.89565" lon="8.60774">
        <ele>16.96</ele>
        <time>2015-10-27T14:47:13Z</time>
      </trkpt>
      <trkpt lat="41.89565" lon="8.60779">
        <ele>16.96</ele>
        <time>2015-10-27T14:47:19Z</time>
      </trkpt>
      <trkpt lat="41.89575" lon="8.60793">
        <ele>16.96</ele>
        <time>2015-10-27T14:47:36Z</time>
      </trkpt>
      <trkpt lat="41.8958" lon="8.60805">
        <ele>16.96</ele>
        <time>2015-10-27T14:47:51Z</time>
      </trkpt>
      <trkpt lat="41.8958" lon="8.60807">
        <ele>15.52</ele>
        <time>2015-10-27T14:48:05Z</time>
      </trkpt>
      <trkpt lat="41.89582" lon="8.60816">
        <ele>16.96</ele>
        <time>2015-10-27T14:48:27Z</time>
      </trkpt>
      <trkpt lat="41.89582" lon="8.60819">
        <ele>18.88</ele>
        <time>2015-10-27T14:48:47Z</time>
      </trkpt>
      <trkpt lat="41.89582" lon="8.60827">
        <ele>20.32</ele>
        <time>2015-10-27T14:49:00Z</time>
      </trkpt>
      <trkpt lat="41.89585" lon="8.6084">
        <ele>22.25</ele>
        <time>2015-10-27T14:49:17Z</time>
      </trkpt>
      <trkpt lat="41.89586" lon="8.60842">
        <ele>21.77</ele>
        <time>2015-10-27T14:49:20Z</time>
      </trkpt>
      <trkpt lat="41.89594" lon="8.60857">
        <ele>21.29</ele>
        <time>2015-10-27T14:49:37Z</time>
      </trkpt>
      <trkpt lat="41.89595" lon="8.60862">
        <ele>23.21</ele>
        <time>2015-10-27T14:49:54Z</time>
      </trkpt>
      <trkpt lat="41.89595" lon="8.60863">
        <ele>23.69</ele>
        <time>2015-10-27T14:50:04Z</time>
      </trkpt>
      <trkpt lat="41.89597" lon="8.60865">
        <ele>21.29</ele>
        <time>2015-10-27T14:50:08Z</time>
      </trkpt>
      <trkpt lat="41.89592" lon="8.60869">
        <ele>19.36</ele>
        <time>2015-10-27T14:50:19Z</time>
      </trkpt>
      <trkpt lat="41.89594" lon="8.60872">
        <ele>24.17</ele>
        <time>2015-10-27T14:50:36Z</time>
      </trkpt>
      <trkpt lat="41.89595" lon="8.60874">
        <ele>26.57</ele>
        <time>2015-10-27T14:50:49Z</time>
      </trkpt>
      <trkpt lat="41.89595" lon="8.60875">
        <ele>25.61</ele>
        <time>2015-10-27T14:51:10Z</time>
      </trkpt>
      <trkpt lat="41.89598" lon="8.60876">
        <ele>23.21</ele>
        <time>2015-10-27T14:51:23Z</time>
      </trkpt>
      <trkpt lat="41.89601" lon="8.60881">
        <ele>21.29</ele>
        <time>2015-10-27T14:51:36Z</time>
      </trkpt>
      <trkpt lat="41.89601" lon="8.60886">
        <ele>19.84</ele>
        <time>2015-10-27T14:51:54Z</time>
      </trkpt>
      <trkpt lat="41.89601" lon="8.60888">
        <ele>16.96</ele>
        <time>2015-10-27T14:52:06Z</time>
      </trkpt>
      <trkpt lat="41.89603" lon="8.60892">
        <ele>16</ele>
        <time>2015-10-27T14:52:11Z</time>
      </trkpt>
      <trkpt lat="41.89603" lon="8.60896">
        <ele>17.92</ele>
        <time>2015-10-27T14:52:29Z</time>
      </trkpt>
      <trkpt lat="41.89603" lon="8.60896">
        <ele>19.36</ele>
        <time>2015-10-27T14:52:50Z</time>
      </trkpt>
      <trkpt lat="41.89604" lon="8.60912">
        <ele>18.4</ele>
        <time>2015-10-27T14:53:08Z</time>
      </trkpt>
      <trkpt lat="41.89609" lon="8.60925">
        <ele>17.92</ele>
        <time>2015-10-27T14:53:25Z</time>
      </trkpt>
      <trkpt lat="41.89611" lon="8.60929">
        <ele>17.92</ele>
        <time>2015-10-27T14:53:40Z</time>
      </trkpt>
      <trkpt lat="41.89614" lon="8.60932">
        <ele>15.04</ele>
        <time>2015-10-27T14:53:51Z</time>
      </trkpt>
      <trkpt lat="41.89615" lon="8.60938">
        <ele>11.67</ele>
        <time>2015-10-27T14:54:26Z</time>
      </trkpt>
      <trkpt lat="41.89622" lon="8.60946">
        <ele>13.12</ele>
        <time>2015-10-27T14:54:39Z</time>
      </trkpt>
      <trkpt lat="41.89633" lon="8.60952">
        <ele>13.12</ele>
        <time>2015-10-27T14:54:55Z</time>
      </trkpt>
      <trkpt lat="41.89633" lon="8.60952">
        <ele>14.08</ele>
        <time>2015-10-27T14:55:23Z</time>
      </trkpt>
      <trkpt lat="41.89642" lon="8.60957">
        <ele>14.56</ele>
        <time>2015-10-27T14:55:35Z</time>
      </trkpt>
      <trkpt lat="41.89649" lon="8.60958">
        <ele>13.6</ele>
        <time>2015-10-27T14:55:49Z</time>
      </trkpt>
      <trkpt lat="41.89653" lon="8.60959">
        <ele>15.52</ele>
        <time>2015-10-27T14:56:03Z</time>
      </trkpt>
      <trkpt lat="41.89657" lon="8.60963">
        <ele>17.44</ele>
        <time>2015-10-27T14:56:15Z</time>
      </trkpt>
      <trkpt lat="41.89662" lon="8.60968">
        <ele>18.88</ele>
        <time>2015-10-27T14:56:31Z</time>
      </trkpt>
      <trkpt lat="41.89669" lon="8.60966">
        <ele>18.88</ele>
        <time>2015-10-27T14:56:46Z</time>
      </trkpt>
      <trkpt lat="41.89669" lon="8.60967">
        <ele>18.88</ele>
        <time>2015-10-27T14:57:06Z</time>
      </trkpt>
      <trkpt lat="41.89669" lon="8.60968">
        <ele>19.36</ele>
        <time>2015-10-27T14:57:10Z</time>
      </trkpt>
      <trkpt lat="41.89666" lon="8.60968">
        <ele>19.36</ele>
        <time>2015-10-27T14:57:24Z</time>
      </trkpt>
      <trkpt lat="41.89666" lon="8.60968">
        <ele>20.32</ele>
        <time>2015-10-27T14:57:42Z</time>
      </trkpt>
      <trkpt lat="41.89667" lon="8.6097">
        <ele>19.84</ele>
        <time>2015-10-27T14:58:21Z</time>
      </trkpt>
      <trkpt lat="41.89667" lon="8.6097">
        <ele>19.84</ele>
        <time>2015-10-27T14:58:56Z</time>
      </trkpt>
      <trkpt lat="41.89667" lon="8.6097">
        <ele>19.36</ele>
        <time>2015-10-27T14:59:25Z</time>
      </trkpt>
      <trkpt lat="41.89667" lon="8.60969">
        <ele>18.88</ele>
        <time>2015-10-27T14:59:54Z</time>
      </trkpt>
      <trkpt lat="41.8967" lon="8.6097">
        <ele>18.4</ele>
        <time>2015-10-27T15:00:15Z</time>
      </trkpt>
      <trkpt lat="41.89669" lon="8.60968">
        <ele>19.84</ele>
        <time>2015-10-27T15:00:47Z</time>
      </trkpt>
      <trkpt lat="41.89668" lon="8.60967">
        <ele>21.77</ele>
        <time>2015-10-27T15:01:06Z</time>
      </trkpt>
      <trkpt lat="41.8967" lon="8.60968">
        <ele>21.29</ele>
        <time>2015-10-27T15:01:21Z</time>
      </trkpt>
      <trkpt lat="41.89671" lon="8.60971">
        <ele>19.36</ele>
        <time>2015-10-27T15:01:50Z</time>
      </trkpt>
      <trkpt lat="41.8967" lon="8.6097">
        <ele>18.88</ele>
        <time>2015-10-27T15:02:12Z</time>
      </trkpt>
      <trkpt lat="41.89671" lon="8.6097">
        <ele>20.32</ele>
        <time>2015-10-27T15:02:29Z</time>
      </trkpt>
      <trkpt lat="41.8967" lon="8.60971">
        <ele>20.81</ele>
        <time>2015-10-27T15:02:54Z</time>
      </trkpt>
      <trkpt lat="41.89672" lon="8.60969">
        <ele>21.29</ele>
        <time>2015-10-27T15:03:27Z</time>
      </trkpt>
      <trkpt lat="41.89671" lon="8.6097">
        <ele>21.77</ele>
        <time>2015-10-27T15:04:00Z</time>
      </trkpt>
      <trkpt lat="41.8967" lon="8.60969">
        <ele>18.88</ele>
        <time>2015-10-27T15:04:32Z</time>
      </trkpt>
      <trkpt lat="41.8967" lon="8.60968">
        <ele>19.36</ele>
        <time>2015-10-27T15:04:36Z</time>
      </trkpt>
      <trkpt lat="41.89671" lon="8.60971">
        <ele>20.32</ele>
        <time>2015-10-27T15:04:51Z</time>
      </trkpt>
      <trkpt lat="41.8967" lon="8.6097">
        <ele>18.4</ele>
        <time>2015-10-27T15:05:22Z</time>
      </trkpt>
      <trkpt lat="41.89668" lon="8.60969">
        <ele>18.4</ele>
        <time>2015-10-27T15:05:28Z</time>
      </trkpt>
      <trkpt lat="41.89668" lon="8.60967">
        <ele>16.48</ele>
        <time>2015-10-27T15:05:42Z</time>
      </trkpt>
      <trkpt lat="41.89667" lon="8.6097">
        <ele>17.92</ele>
        <time>2015-10-27T15:06:23Z</time>
      </trkpt>
      <trkpt lat="41.89667" lon="8.6097">
        <ele>18.4</ele>
        <time>2015-10-27T15:06:53Z</time>
      </trkpt>
      <trkpt lat="41.89665" lon="8.60971">
        <ele>17.92</ele>
        <time>2015-10-27T15:07:07Z</time>
      </trkpt>
      <trkpt lat="41.89663" lon="8.60972">
        <ele>17.44</ele>
        <time>2015-10-27T15:07:21Z</time>
      </trkpt>
      <trkpt lat="41.89663" lon="8.60975">
        <ele>16.48</ele>
        <time>2015-10-27T15:07:30Z</time>
      </trkpt>
      <trkpt lat="41.89669" lon="8.60977">
        <ele>13.6</ele>
        <time>2015-10-27T15:07:41Z</time>
      </trkpt>
      <trkpt lat="41.8967" lon="8.60978">
        <ele>13.12</ele>
        <time>2015-10-27T15:07:43Z</time>
      </trkpt>
      <trkpt lat="41.89675" lon="8.60982">
        <ele>11.19</ele>
        <time>2015-10-27T15:07:54Z</time>
      </trkpt>
      <trkpt lat="41.89674" lon="8.60981">
        <ele>11.19</ele>
        <time>2015-10-27T15:07:55Z</time>
      </trkpt>
      <trkpt lat="41.89679" lon="8.60986">
        <ele>8.79</ele>
        <time>2015-10-27T15:08:06Z</time>
      </trkpt>
      <trkpt lat="41.89679" lon="8.6099">
        <ele>8.79</ele>
        <time>2015-10-27T15:08:13Z</time>
      </trkpt>
      <trkpt lat="41.89679" lon="8.60992">
        <ele>8.31</ele>
        <time>2015-10-27T15:08:15Z</time>
      </trkpt>
      <trkpt lat="41.89675" lon="8.61005">
        <ele>7.83</ele>
        <time>2015-10-27T15:08:24Z</time>
      </trkpt>
      <trkpt lat="41.89673" lon="8.6101">
        <ele>7.83</ele>
        <time>2015-10-27T15:08:29Z</time>
      </trkpt>
      <trkpt lat="41.89673" lon="8.61016">
        <ele>6.87</ele>
        <time>2015-10-27T15:08:35Z</time>
      </trkpt>
      <trkpt lat="41.8967" lon="8.6103">
        <ele>5.42</ele>
        <time>2015-10-27T15:08:47Z</time>
      </trkpt>
      <trkpt lat="41.8967" lon="8.61035">
        <ele>5.42</ele>
        <time>2015-10-27T15:08:51Z</time>
      </trkpt>
      <trkpt lat="41.8967" lon="8.6104">
        <ele>4.46</ele>
        <time>2015-10-27T15:09:01Z</time>
      </trkpt>
      <trkpt lat="41.89671" lon="8.61029">
        <ele>5.42</ele>
        <time>2015-10-27T15:09:06Z</time>
      </trkpt>
      <trkpt lat="41.89671" lon="8.61017">
        <ele>5.42</ele>
        <time>2015-10-27T15:09:16Z</time>
      </trkpt>
      <trkpt lat="41.89673" lon="8.61009">
        <ele>5.42</ele>
        <time>2015-10-27T15:09:24Z</time>
      </trkpt>
      <trkpt lat="41.89678" lon="8.61002">
        <ele>5.91</ele>
        <time>2015-10-27T15:09:31Z</time>
      </trkpt>
      <trkpt lat="41.8968" lon="8.60998">
        <ele>5.42</ele>
        <time>2015-10-27T15:09:50Z</time>
      </trkpt>
      <trkpt lat="41.8968" lon="8.60998">
        <ele>6.87</ele>
        <time>2015-10-27T15:10:29Z</time>
      </trkpt>
      <trkpt lat="41.89679" lon="8.60998">
        <ele>7.35</ele>
        <time>2015-10-27T15:10:41Z</time>
      </trkpt>
      <trkpt lat="41.89673" lon="8.61016">
        <ele>7.35</ele>
        <time>2015-10-27T15:10:57Z</time>
      </trkpt>
      <trkpt lat="41.89662" lon="8.61031">
        <ele>4.94</ele>
        <time>2015-10-27T15:11:12Z</time>
      </trkpt>
      <trkpt lat="41.89662" lon="8.61037">
        <ele>4.94</ele>
        <time>2015-10-27T15:11:18Z</time>
      </trkpt>
      <trkpt lat="41.89669" lon="8.61048">
        <ele>4.46</ele>
        <time>2015-10-27T15:11:29Z</time>
      </trkpt>
      <trkpt lat="41.89675" lon="8.61062">
        <ele>4.46</ele>
        <time>2015-10-27T15:11:42Z</time>
      </trkpt>
      <trkpt lat="41.89679" lon="8.61074">
        <ele>3.98</ele>
        <time>2015-10-27T15:11:54Z</time>
      </trkpt>
      <trkpt lat="41.89687" lon="8.61089">
        <ele>4.46</ele>
        <time>2015-10-27T15:12:09Z</time>
      </trkpt>
      <trkpt lat="41.89696" lon="8.61101">
        <ele>5.42</ele>
        <time>2015-10-27T15:12:23Z</time>
      </trkpt>
      <trkpt lat="41.89702" lon="8.61111">
        <ele>5.91</ele>
        <time>2015-10-27T15:12:37Z</time>
      </trkpt>
      <trkpt lat="41.89708" lon="8.61115">
        <ele>6.87</ele>
        <time>2015-10-27T15:12:58Z</time>
      </trkpt>
      <trkpt lat="41.8971" lon="8.61115">
        <ele>7.35</ele>
        <time>2015-10-27T15:13:02Z</time>
      </trkpt>
      <trkpt lat="41.89718" lon="8.61114">
        <ele>8.31</ele>
        <time>2015-10-27T15:13:12Z</time>
      </trkpt>
      <trkpt lat="41.89723" lon="8.61114">
        <ele>8.31</ele>
        <time>2015-10-27T15:13:17Z</time>
      </trkpt>
      <trkpt lat="41.89737" lon="8.61104">
        <ele>8.31</ele>
        <time>2015-10-27T15:13:31Z</time>
      </trkpt>
      <trkpt lat="41.89747" lon="8.61096">
        <ele>10.23</ele>
        <time>2015-10-27T15:13:42Z</time>
      </trkpt>
      <trkpt lat="41.89756" lon="8.61092">
        <ele>9.75</ele>
        <time>2015-10-27T15:13:50Z</time>
      </trkpt>
      <trkpt lat="41.8976" lon="8.61091">
        <ele>10.71</ele>
        <time>2015-10-27T15:14:00Z</time>
      </trkpt>
      <trkpt lat="41.89767" lon="8.61092">
        <ele>12.15</ele>
        <time>2015-10-27T15:14:09Z</time>
      </trkpt>
      <trkpt lat="41.89768" lon="8.61091">
        <ele>12.15</ele>
        <time>2015-10-27T15:14:10Z</time>
      </trkpt>
      <trkpt lat="41.89769" lon="8.61091">
        <ele>12.15</ele>
        <time>2015-10-27T15:14:11Z</time>
      </trkpt>
      <trkpt lat="41.89772" lon="8.61092">
        <ele>12.63</ele>
        <time>2015-10-27T15:14:14Z</time>
      </trkpt>
      <trkpt lat="41.89784" lon="8.61097">
        <ele>15.52</ele>
        <time>2015-10-27T15:14:27Z</time>
      </trkpt>
      <trkpt lat="41.89795" lon="8.61102">
        <ele>17.92</ele>
        <time>2015-10-27T15:14:39Z</time>
      </trkpt>
      <trkpt lat="41.89801" lon="8.61106">
        <ele>18.88</ele>
        <time>2015-10-27T15:14:47Z</time>
      </trkpt>
      <trkpt lat="41.89805" lon="8.61108">
        <ele>19.84</ele>
        <time>2015-10-27T15:14:52Z</time>
      </trkpt>
      <trkpt lat="41.89814" lon="8.6111">
        <ele>22.25</ele>
        <time>2015-10-27T15:15:03Z</time>
      </trkpt>
      <trkpt lat="41.89819" lon="8.61111">
        <ele>23.21</ele>
        <time>2015-10-27T15:15:17Z</time>
      </trkpt>
      <trkpt lat="41.89822" lon="8.61113">
        <ele>22.25</ele>
        <time>2015-10-27T15:15:47Z</time>
      </trkpt>
      <trkpt lat="41.89825" lon="8.61113">
        <ele>22.25</ele>
        <time>2015-10-27T15:15:50Z</time>
      </trkpt>
      <trkpt lat="41.89827" lon="8.61113">
        <ele>21.77</ele>
        <time>2015-10-27T15:15:52Z</time>
      </trkpt>
      <trkpt lat="41.8984" lon="8.61115">
        <ele>23.69</ele>
        <time>2015-10-27T15:16:06Z</time>
      </trkpt>
      <trkpt lat="41.89844" lon="8.61115">
        <ele>24.17</ele>
        <time>2015-10-27T15:16:10Z</time>
      </trkpt>
      <trkpt lat="41.89845" lon="8.61116">
        <ele>24.17</ele>
        <time>2015-10-27T15:16:11Z</time>
      </trkpt>
      <trkpt lat="41.8985" lon="8.61116">
        <ele>25.13</ele>
        <time>2015-10-27T15:16:16Z</time>
      </trkpt>
      <trkpt lat="41.89861" lon="8.61114">
        <ele>26.57</ele>
        <time>2015-10-27T15:16:27Z</time>
      </trkpt>
      <trkpt lat="41.89873" lon="8.61114">
        <ele>27.53</ele>
        <time>2015-10-27T15:16:40Z</time>
      </trkpt>
      <trkpt lat="41.89887" lon="8.61115">
        <ele>26.57</ele>
        <time>2015-10-27T15:16:53Z</time>
      </trkpt>
      <trkpt lat="41.89894" lon="8.61117">
        <ele>27.05</ele>
        <time>2015-10-27T15:17:00Z</time>
      </trkpt>
      <trkpt lat="41.89895" lon="8.61117">
        <ele>26.57</ele>
        <time>2015-10-27T15:17:02Z</time>
      </trkpt>
      <trkpt lat="41.89897" lon="8.61117">
        <ele>26.57</ele>
        <time>2015-10-27T15:17:03Z</time>
      </trkpt>
      <trkpt lat="41.89903" lon="8.61115">
        <ele>24.65</ele>
        <time>2015-10-27T15:17:11Z</time>
      </trkpt>
      <trkpt lat="41.89905" lon="8.61116">
        <ele>24.65</ele>
        <time>2015-10-27T15:17:12Z</time>
      </trkpt>
      <trkpt lat="41.89906" lon="8.61117">
        <ele>24.65</ele>
        <time>2015-10-27T15:17:13Z</time>
      </trkpt>
      <trkpt lat="41.8991" lon="8.61119">
        <ele>24.17</ele>
        <time>2015-10-27T15:17:17Z</time>
      </trkpt>
      <trkpt lat="41.89912" lon="8.61121">
        <ele>24.65</ele>
        <time>2015-10-27T15:17:19Z</time>
      </trkpt>
      <trkpt lat="41.89925" lon="8.6113">
        <ele>26.09</ele>
        <time>2015-10-27T15:17:34Z</time>
      </trkpt>
      <trkpt lat="41.89932" lon="8.61138">
        <ele>27.53</ele>
        <time>2015-10-27T15:17:47Z</time>
      </trkpt>
      <trkpt lat="41.89936" lon="8.61142">
        <ele>27.53</ele>
        <time>2015-10-27T15:18:13Z</time>
      </trkpt>
      <trkpt lat="41.89942" lon="8.61149">
        <ele>27.53</ele>
        <time>2015-10-27T15:18:22Z</time>
      </trkpt>
      <trkpt lat="41.89944" lon="8.61151">
        <ele>27.53</ele>
        <time>2015-10-27T15:18:24Z</time>
      </trkpt>
      <trkpt lat="41.89944" lon="8.61152">
        <ele>27.53</ele>
        <time>2015-10-27T15:18:25Z</time>
      </trkpt>
      <trkpt lat="41.89945" lon="8.61153">
        <ele>27.53</ele>
        <time>2015-10-27T15:18:26Z</time>
      </trkpt>
      <trkpt lat="41.8995" lon="8.61158">
        <ele>27.53</ele>
        <time>2015-10-27T15:18:32Z</time>
      </trkpt>
      <trkpt lat="41.89951" lon="8.61159">
        <ele>27.53</ele>
        <time>2015-10-27T15:18:33Z</time>
      </trkpt>
      <trkpt lat="41.89958" lon="8.6116">
        <ele>26.57</ele>
        <time>2015-10-27T15:18:41Z</time>
      </trkpt>
      <trkpt lat="41.89959" lon="8.61162">
        <ele>26.09</ele>
        <time>2015-10-27T15:18:44Z</time>
      </trkpt>
      <trkpt lat="41.8996" lon="8.61164">
        <ele>26.09</ele>
        <time>2015-10-27T15:18:45Z</time>
      </trkpt>
      <trkpt lat="41.89961" lon="8.61168">
        <ele>26.57</ele>
        <time>2015-10-27T15:18:49Z</time>
      </trkpt>
      <trkpt lat="41.89962" lon="8.6117">
        <ele>27.05</ele>
        <time>2015-10-27T15:18:50Z</time>
      </trkpt>
      <trkpt lat="41.89963" lon="8.61173">
        <ele>27.53</ele>
        <time>2015-10-27T15:18:53Z</time>
      </trkpt>
      <trkpt lat="41.89964" lon="8.61174">
        <ele>27.53</ele>
        <time>2015-10-27T15:18:54Z</time>
      </trkpt>
      <trkpt lat="41.89971" lon="8.6118">
        <ele>27.53</ele>
        <time>2015-10-27T15:19:04Z</time>
      </trkpt>
      <trkpt lat="41.8998" lon="8.61189">
        <ele>27.53</ele>
        <time>2015-10-27T15:19:17Z</time>
      </trkpt>
      <trkpt lat="41.89987" lon="8.61199">
        <ele>27.53</ele>
        <time>2015-10-27T15:19:31Z</time>
      </trkpt>
      <trkpt lat="41.89996" lon="8.61207">
        <ele>28.5</ele>
        <time>2015-10-27T15:19:44Z</time>
      </trkpt>
      <trkpt lat="41.90004" lon="8.61215">
        <ele>29.46</ele>
        <time>2015-10-27T15:19:55Z</time>
      </trkpt>
      <trkpt lat="41.90014" lon="8.61225">
        <ele>29.94</ele>
        <time>2015-10-27T15:20:06Z</time>
      </trkpt>
      <trkpt lat="41.90014" lon="8.61226">
        <ele>29.94</ele>
        <time>2015-10-27T15:20:07Z</time>
      </trkpt>
      <trkpt lat="41.90027" lon="8.61236">
        <ele>30.9</ele>
        <time>2015-10-27T15:20:20Z</time>
      </trkpt>
      <trkpt lat="41.90032" lon="8.6124">
        <ele>30.9</ele>
        <time>2015-10-27T15:20:25Z</time>
      </trkpt>
      <trkpt lat="41.90032" lon="8.61241">
        <ele>30.9</ele>
        <time>2015-10-27T15:20:26Z</time>
      </trkpt>
      <trkpt lat="41.90035" lon="8.61244">
        <ele>30.42</ele>
        <time>2015-10-27T15:20:29Z</time>
      </trkpt>
      <trkpt lat="41.90038" lon="8.61247">
        <ele>30.42</ele>
        <time>2015-10-27T15:20:33Z</time>
      </trkpt>
      <trkpt lat="41.90038" lon="8.61248">
        <ele>29.94</ele>
        <time>2015-10-27T15:20:34Z</time>
      </trkpt>
      <trkpt lat="41.90039" lon="8.6125">
        <ele>30.42</ele>
        <time>2015-10-27T15:20:35Z</time>
      </trkpt>
      <trkpt lat="41.9005" lon="8.61262">
        <ele>30.42</ele>
        <time>2015-10-27T15:20:48Z</time>
      </trkpt>
      <trkpt lat="41.90059" lon="8.61275">
        <ele>29.94</ele>
        <time>2015-10-27T15:21:00Z</time>
      </trkpt>
      <trkpt lat="41.90058" lon="8.61276">
        <ele>29.46</ele>
        <time>2015-10-27T15:21:19Z</time>
      </trkpt>
      <trkpt lat="41.90062" lon="8.61278">
        <ele>28.5</ele>
        <time>2015-10-27T15:21:42Z</time>
      </trkpt>
      <trkpt lat="41.90062" lon="8.61279">
        <ele>27.53</ele>
        <time>2015-10-27T15:21:54Z</time>
      </trkpt>
      <trkpt lat="41.90064" lon="8.61283">
        <ele>27.53</ele>
        <time>2015-10-27T15:22:09Z</time>
      </trkpt>
      <trkpt lat="41.90068" lon="8.6129">
        <ele>27.05</ele>
        <time>2015-10-27T15:22:23Z</time>
      </trkpt>
      <trkpt lat="41.90068" lon="8.61292">
        <ele>27.05</ele>
        <time>2015-10-27T15:22:24Z</time>
      </trkpt>
      <trkpt lat="41.90069" lon="8.61293">
        <ele>27.53</ele>
        <time>2015-10-27T15:22:25Z</time>
      </trkpt>
      <trkpt lat="41.90077" lon="8.61309">
        <ele>27.05</ele>
        <time>2015-10-27T15:22:39Z</time>
      </trkpt>
      <trkpt lat="41.90079" lon="8.61313">
        <ele>27.05</ele>
        <time>2015-10-27T15:23:00Z</time>
      </trkpt>
      <trkpt lat="41.9008" lon="8.6132">
        <ele>28.5</ele>
        <time>2015-10-27T15:23:11Z</time>
      </trkpt>
      <trkpt lat="41.90086" lon="8.61336">
        <ele>28.02</ele>
        <time>2015-10-27T15:23:24Z</time>
      </trkpt>
      <trkpt lat="41.90086" lon="8.61338">
        <ele>28.02</ele>
        <time>2015-10-27T15:23:25Z</time>
      </trkpt>
      <trkpt lat="41.90087" lon="8.61339">
        <ele>28.02</ele>
        <time>2015-10-27T15:23:26Z</time>
      </trkpt>
      <trkpt lat="41.9009" lon="8.61357">
        <ele>28.02</ele>
        <time>2015-10-27T15:23:39Z</time>
      </trkpt>
      <trkpt lat="41.90093" lon="8.61375">
        <ele>28.5</ele>
        <time>2015-10-27T15:23:53Z</time>
      </trkpt>
      <trkpt lat="41.90095" lon="8.61397">
        <ele>28.02</ele>
        <time>2015-10-27T15:24:07Z</time>
      </trkpt>
      <trkpt lat="41.90097" lon="8.61408">
        <ele>26.57</ele>
        <time>2015-10-27T15:24:15Z</time>
      </trkpt>
      <trkpt lat="41.90097" lon="8.61415">
        <ele>26.09</ele>
        <time>2015-10-27T15:24:20Z</time>
      </trkpt>
      <trkpt lat="41.90098" lon="8.61416">
        <ele>25.61</ele>
        <time>2015-10-27T15:24:21Z</time>
      </trkpt>
      <trkpt lat="41.90098" lon="8.61418">
        <ele>25.61</ele>
        <time>2015-10-27T15:24:22Z</time>
      </trkpt>
      <trkpt lat="41.90101" lon="8.61431">
        <ele>23.69</ele>
        <time>2015-10-27T15:24:36Z</time>
      </trkpt>
      <trkpt lat="41.90103" lon="8.61442">
        <ele>23.69</ele>
        <time>2015-10-27T15:24:51Z</time>
      </trkpt>
      <trkpt lat="41.90103" lon="8.61453">
        <ele>22.25</ele>
        <time>2015-10-27T15:25:02Z</time>
      </trkpt>
      <trkpt lat="41.90105" lon="8.61456">
        <ele>20.81</ele>
        <time>2015-10-27T15:25:07Z</time>
      </trkpt>
      <trkpt lat="41.90109" lon="8.6146">
        <ele>17.92</ele>
        <time>2015-10-27T15:25:18Z</time>
      </trkpt>
      <trkpt lat="41.90111" lon="8.61461">
        <ele>16.96</ele>
        <time>2015-10-27T15:25:20Z</time>
      </trkpt>
      <trkpt lat="41.90113" lon="8.6146">
        <ele>16.48</ele>
        <time>2015-10-27T15:25:22Z</time>
      </trkpt>
      <trkpt lat="41.90115" lon="8.61462">
        <ele>15.04</ele>
        <time>2015-10-27T15:25:24Z</time>
      </trkpt>
      <trkpt lat="41.90117" lon="8.61472">
        <ele>14.56</ele>
        <time>2015-10-27T15:25:30Z</time>
      </trkpt>
      <trkpt lat="41.90122" lon="8.61479">
        <ele>11.67</ele>
        <time>2015-10-27T15:25:39Z</time>
      </trkpt>
      <trkpt lat="41.90121" lon="8.61482">
        <ele>11.19</ele>
        <time>2015-10-27T15:25:41Z</time>
      </trkpt>
      <trkpt lat="41.90117" lon="8.61495">
        <ele>10.71</ele>
        <time>2015-10-27T15:25:48Z</time>
      </trkpt>
      <trkpt lat="41.90115" lon="8.61504">
        <ele>11.19</ele>
        <time>2015-10-27T15:25:55Z</time>
      </trkpt>
      <trkpt lat="41.90107" lon="8.61526">
        <ele>12.63</ele>
        <time>2015-10-27T15:26:09Z</time>
      </trkpt>
      <trkpt lat="41.90105" lon="8.6154">
        <ele>13.6</ele>
        <time>2015-10-27T15:26:19Z</time>
      </trkpt>
      <trkpt lat="41.90108" lon="8.61554">
        <ele>9.75</ele>
        <time>2015-10-27T15:26:30Z</time>
      </trkpt>
      <trkpt lat="41.90101" lon="8.61585">
        <ele>9.27</ele>
        <time>2015-10-27T15:26:44Z</time>
      </trkpt>
      <trkpt lat="41.90106" lon="8.61588">
        <ele>8.79</ele>
        <time>2015-10-27T15:26:51Z</time>
      </trkpt>
      <trkpt lat="41.90111" lon="8.61616">
        <ele>6.87</ele>
        <time>2015-10-27T15:27:05Z</time>
      </trkpt>
      <trkpt lat="41.90113" lon="8.6162">
        <ele>6.39</ele>
        <time>2015-10-27T15:27:11Z</time>
      </trkpt>
      <trkpt lat="41.90113" lon="8.61636">
        <ele>5.91</ele>
        <time>2015-10-27T15:27:21Z</time>
      </trkpt>
      <trkpt lat="41.90125" lon="8.61648">
        <ele>5.91</ele>
        <time>2015-10-27T15:27:33Z</time>
      </trkpt>
    </trkseg>
  </trk>
</gpx>